Аэропорт
Улан-Удэ (UIUU)

 UIUU / UUD
ЗЦ Новосибирск
Иркутск (UIII)
Иркутск (UIII)
 51.80780, 107.43800  / 1690 ft

 UIUU 140200Z 1403/1503 26003MPS 2500 -SHSN FU BKN019CB TEMPO 1403/1503 1200 SHSN FU VV007
UIUU (AIP 1605), UIUU (DATA-TEXTS-TABLES)
показать схемы
Название сценария Тип сценария Flight Simulator 9 Flight Simulator X Prepar3D v2 Prepar3D v3 Prepar3D v4 xPlane
Аэропорт Улан-Удэ Байкал (Мухино) бесплатный
Окрестности Улан-Удэ бесплатный

 

 

Аэропорт "Байкал" / Улан-Удэ (Мухино) - международный аэропорт федерального значения города Улан-Удэ, Республика Бурятия. Расположен в 9,5 километрах Западнее города Улан-Удэ, в 75 километрах к Юго-Востоку от озера Байкал. В 2008 году аэропорту было присвоено название «Байкал», которое используется службами аэропорта, в разговорной речи и в региональных СМИ. Однако официально аэропорт по-прежнему называется Улан-Удэ (Мухино).

 

Характеристика взлетно-посадочной полосы и оборудования

ВПП МПУ Размеры (м.) Превышение (м.) Освещение ДПРМ БПРМ ИЛС
08 083° 2996х45 516 --- --- ---
---
26 263° 2996х45 506 ОВИ-1 (ICAO CAT. I) 349 (ZD) 320 (Z) 110.300

 

Средства связи ОВД

Позиция Обозначение Позывной (РУС) Позывной (ENG) Частота
Контроль UIII_CTR Иркутск-Контроль Irkutsk-Control 133.400
Подход UIUU_APP Улан-Удэ-Подход Ulan-Ude-Approach 129.300
Вышка* UIUU_TWR Улан-Удэ-Вышка Ulan-Ude-Tower 118.100

*выполняет функции Посадки, Старта и Руления

 



2018 © VATRUS division